Time;durP1;ratioP1;P1;durP2;ratioP2;P2;SDS_P1;SDS_P2;PMS_P1;PMS_P2;Temp;Humidity;BMP_temperature;BMP_pressure;BME280_temperature;BME280_humidity;BME280_pressure;Samples;Min_cycle;Max_cycle;Signal;HPM_P1;HPM_P2
2023/08/01 00:00:02;;;;;;;;;;;17.00;99.90;;;;;;4975933;28;19955;-66
2023/08/01 00:02:30;;;;;;;;;;;17.00;99.90;;;;;;4975800;28;19926;-64
2023/08/01 00:04:58;;;;;;;;;;;17.00;99.90;;;;;;4973804;28;19926;-64
2023/08/01 00:07:28;;;;;;;;;;;17.00;99.90;;;;;;4980674;28;19933;-67
2023/08/01 00:09:55;;;;;;;;;;;17.00;99.90;;;;;;4992407;28;19934;-64
2023/08/01 00:12:26;;;;;;;;;;;17.00;99.90;;;;;;4980651;28;19937;-65
2023/08/01 00:14:53;;;;;;;;;;;17.00;99.90;;;;;;4974515;28;19934;-63
2023/08/01 00:17:21;;;;;;;;;;;17.00;99.90;;;;;;4974540;28;19926;-64
2023/08/01 00:19:49;;;;;;;;;;;17.00;99.90;;;;;;4975438;28;19930;-65
2023/08/01 00:22:17;;;;;;;;;;;17.00;99.90;;;;;;4974752;28;20005;-62
2023/08/01 00:24:47;;;;;;;;;;;17.00;99.90;;;;;;4987112;28;20392;-66
2023/08/01 00:27:15;;;;;;;;;;;17.00;99.90;;;;;;4977977;28;20271;-66
2023/08/01 00:29:44;;;;;;;;;;;17.00;99.90;;;;;;4977827;28;19990;-64
2023/08/01 00:32:12;;;;;;;;;;;17.10;99.90;;;;;;4974598;28;19926;-65
2023/08/01 00:34:39;;;;;;;;;;;17.10;99.90;;;;;;4974589;28;19949;-65
2023/08/01 00:37:07;;;;;;;;;;;17.20;99.90;;;;;;4977824;28;19957;-68
2023/08/01 00:39:35;;;;;;;;;;;17.20;99.90;;;;;;4984211;28;20470;-65
2023/08/01 00:42:03;;;;;;;;;;;17.30;99.90;;;;;;4974326;28;19981;-65
2023/08/01 00:44:30;;;;;;;;;;;17.30;99.90;;;;;;4980173;28;19933;-66
2023/08/01 00:47:00;;;;;;;;;;;17.30;99.90;;;;;;4975750;28;19930;-67
2023/08/01 00:49:28;;;;;;;;;;;17.30;99.90;;;;;;4974260;28;19933;-65
2023/08/01 00:51:56;;;;;;;;;;;17.30;99.90;;;;;;4975371;28;20429;-65
2023/08/01 00:54:23;;;;;;;;;;;17.40;99.90;;;;;;4974377;28;19996;-65
2023/08/01 00:56:51;;;;;;;;;;;17.30;99.90;;;;;;4973773;28;20468;-64
2023/08/01 00:59:19;;;;;;;;;;;17.50;99.90;;;;;;4974325;28;20403;-65
2023/08/01 01:01:47;;;;;;;;;;;17.40;99.90;;;;;;4981796;28;19988;-65
2023/08/01 01:04:16;;;;;;;;;;;17.30;99.90;;;;;;4974122;28;20309;-68
2023/08/01 01:06:48;;;;;;;;;;;17.30;99.90;;;;;;4974183;28;19930;-65
2023/08/01 01:09:17;;;;;;;;;;;17.30;99.90;;;;;;4991921;28;19952;-64
2023/08/01 01:11:44;;;;;;;;;;;17.20;99.90;;;;;;4977401;28;19933;-64
2023/08/01 01:14:12;;;;;;;;;;;17.10;99.90;;;;;;4973890;28;19926;-65
2023/08/01 01:16:40;;;;;;;;;;;17.10;99.90;;;;;;4973658;28;19970;-65
2023/08/01 01:19:09;;;;;;;;;;;17.10;99.90;;;;;;4981399;28;20348;-65
2023/08/01 01:21:40;;;;;;;;;;;17.10;99.90;;;;;;4974036;28;20389;-65
2023/08/01 01:24:08;;;;;;;;;;;17.10;99.90;;;;;;4974593;28;19988;-65
2023/08/01 01:26:37;;;;;;;;;;;17.10;99.90;;;;;;4973763;28;19933;-65
2023/08/01 01:29:05;;;;;;;;;;;17.10;99.90;;;;;;4973768;28;20409;-64
2023/08/01 01:31:34;;;;;;;;;;;17.00;99.90;;;;;;4973944;28;19933;-64
2023/08/01 01:34:02;;;;;;;;;;;17.10;99.90;;;;;;4973905;28;19925;-65
2023/08/01 01:36:30;;;;;;;;;;;17.10;99.90;;;;;;4980418;28;19981;-65
2023/08/01 01:38:59;;;;;;;;;;;17.10;99.90;;;;;;4990145;28;19926;-65
2023/08/01 01:41:27;;;;;;;;;;;17.10;99.90;;;;;;4978562;28;19937;-66
2023/08/01 01:43:54;;;;;;;;;;;17.10;99.90;;;;;;4975308;28;20435;-64
2023/08/01 01:46:22;;;;;;;;;;;17.10;99.90;;;;;;4973857;28;19926;-64
2023/08/01 01:48:50;;;;;;;;;;;17.20;99.90;;;;;;4973571;28;19926;-64
2023/08/01 01:51:18;;;;;;;;;;;17.10;99.90;;;;;;4974085;28;20282;-65
2023/08/01 01:53:45;;;;;;;;;;;17.10;99.90;;;;;;4983026;28;19930;-65
2023/08/01 01:56:15;;;;;;;;;;;17.10;99.90;;;;;;4973804;28;19930;-67
2023/08/01 01:58:42;;;;;;;;;;;17.10;99.90;;;;;;4973714;28;19977;-65
2023/08/01 02:01:10;;;;;;;;;;;17.20;99.90;;;;;;4973857;28;19926;-66
2023/08/01 02:03:38;;;;;;;;;;;17.20;99.90;;;;;;4975225;28;19929;-66
2023/08/01 02:06:06;;;;;;;;;;;17.30;99.90;;;;;;4974610;28;19926;-66
2023/08/01 02:08:34;;;;;;;;;;;17.30;99.90;;;;;;4980640;28;20296;-65
2023/08/01 02:11:02;;;;;;;;;;;17.30;99.90;;;;;;4981314;28;19934;-65
2023/08/01 02:13:32;;;;;;;;;;;17.20;99.90;;;;;;4973871;28;19927;-65
2023/08/01 02:16:02;;;;;;;;;;;17.20;99.90;;;;;;4973587;28;20413;-65
2023/08/01 02:18:29;;;;;;;;;;;17.20;99.90;;;;;;5012334;23;19925;-75
2023/08/01 02:20:57;;;;;;;;;;;17.30;99.90;;;;;;5024896;28;19925;-77
2023/08/01 02:23:25;;;;;;;;;;;17.20;99.90;;;;;;5030505;28;19933;-76
2023/08/01 02:25:53;;;;;;;;;;;17.30;99.90;;;;;;5030469;28;20653;-77
2023/08/01 02:28:20;;;;;;;;;;;17.20;99.90;;;;;;5033561;28;20319;-79
2023/08/01 02:30:50;;;;;;;;;;;17.30;99.90;;;;;;5028577;28;19972;-76
2023/08/01 02:33:18;;;;;;;;;;;17.30;99.90;;;;;;5029890;28;19932;-75
2023/08/01 02:35:46;;;;;;;;;;;17.30;99.90;;;;;;5025945;28;20416;-76
2023/08/01 02:38:14;;;;;;;;;;;17.30;99.90;;;;;;5033343;28;19932;-74
2023/08/01 02:40:42;;;;;;;;;;;17.30;99.90;;;;;;5034113;28;20292;-74
2023/08/01 02:43:10;;;;;;;;;;;17.30;99.90;;;;;;5017276;28;19933;-76
2023/08/01 02:45:38;;;;;;;;;;;17.40;99.90;;;;;;5032231;28;20332;-76
2023/08/01 02:48:07;;;;;;;;;;;17.50;99.90;;;;;;5031468;28;20024;-75
2023/08/01 02:50:35;;;;;;;;;;;17.50;99.90;;;;;;5029577;28;19936;-74
2023/08/01 02:53:02;;;;;;;;;;;17.50;99.90;;;;;;5031662;28;19941;-76
2023/08/01 02:55:30;;;;;;;;;;;17.50;99.90;;;;;;5031031;28;19932;-75
2023/08/01 02:57:58;;;;;;;;;;;17.50;99.90;;;;;;5029973;28;19929;-73
2023/08/01 03:00:26;;;;;;;;;;;17.50;99.90;;;;;;5030344;28;19984;-76
2023/08/01 03:02:54;;;;;;;;;;;17.50;99.90;;;;;;5029209;28;19929;-75
2023/08/01 03:05:23;;;;;;;;;;;17.50;99.90;;;;;;5030370;28;19936;-75
2023/08/01 03:07:51;;;;;;;;;;;17.40;99.90;;;;;;5030135;28;19932;-77
2023/08/01 03:10:19;;;;;;;;;;;17.40;99.90;;;;;;5017492;28;19925;-78
2023/08/01 03:13:03;;;;;;;;;;;17.40;99.90;;;;;;5027584;28;19933;-76
2023/08/01 03:15:31;;;;;;;;;;;17.40;99.90;;;;;;5026875;28;20467;-74
2023/08/01 03:17:59;;;;;;;;;;;17.40;99.90;;;;;;5019091;28;20396;-75
2023/08/01 03:20:28;;;;;;;;;;;17.40;99.90;;;;;;5031227;28;20396;-75
2023/08/01 03:23:10;;;;;;;;;;;17.40;99.90;;;;;;5029673;28;20311;-76
2023/08/01 03:25:37;;;;;;;;;;;17.50;99.90;;;;;;5029839;28;19929;-73
2023/08/01 03:28:05;;;;;;;;;;;17.50;99.90;;;;;;5027394;28;19929;-75
2023/08/01 03:30:33;;;;;;;;;;;17.50;99.90;;;;;;5028805;28;20533;-74
2023/08/01 03:33:03;;;;;;;;;;;17.50;99.90;;;;;;5028904;28;19940;-74
2023/08/01 03:35:32;;;;;;;;;;;17.50;99.90;;;;;;5029260;28;19956;-75
2023/08/01 03:38:00;;;;;;;;;;;17.50;99.90;;;;;;5025356;28;19983;-73
2023/08/01 03:40:28;;;;;;;;;;;17.50;99.90;;;;;;5030130;28;19970;-74
2023/08/01 03:42:56;;;;;;;;;;;17.50;99.90;;;;;;5028838;28;19979;-73
2023/08/01 03:45:23;;;;;;;;;;;17.50;99.90;;;;;;5027668;28;19936;-73
2023/08/01 03:47:51;;;;;;;;;;;17.50;99.90;;;;;;5030118;28;19933;-74
2023/08/01 03:50:19;;;;;;;;;;;17.50;99.90;;;;;;5029487;28;20347;-74
2023/08/01 03:52:48;;;;;;;;;;;17.50;99.90;;;;;;5026989;28;19939;-74
2023/08/01 03:55:16;;;;;;;;;;;17.50;99.90;;;;;;5028522;28;20342;-73
2023/08/01 03:57:44;;;;;;;;;;;17.50;99.90;;;;;;5028830;28;20457;-76
2023/08/01 04:00:14;;;;;;;;;;;17.50;99.90;;;;;;5028760;28;20147;-76
2023/08/01 04:02:42;;;;;;;;;;;17.50;99.90;;;;;;5022382;28;20422;-78
2023/08/01 04:05:14;;;;;;;;;;;17.50;99.90;;;;;;5026748;28;19933;-75
2023/08/01 04:07:42;;;;;;;;;;;17.50;99.90;;;;;;5024768;28;19925;-74
2023/08/01 04:10:11;;;;;;;;;;;17.50;99.90;;;;;;5023541;28;19925;-78
2023/08/01 04:12:39;;;;;;;;;;;17.50;99.90;;;;;;5024015;28;19980;-74
2023/08/01 04:15:07;;;;;;;;;;;17.50;99.90;;;;;;5013989;28;19932;-73
2023/08/01 04:17:35;;;;;;;0.60;0.55;;;17.40;99.90;;;;;;5015377;28;20057;-75
2023/08/01 04:20:03;;;;;;;0.60;0.50;;;17.40;99.90;;;;;;5018463;28;20240;-72
2023/08/01 04:22:31;;;;;;;0.55;0.40;;;17.50;99.90;;;;;;5019011;28;20211;-72
2023/08/01 04:24:59;;;;;;;1.13;0.50;;;17.50;99.90;;;;;;5018923;28;20753;-73
2023/08/01 04:27:28;;;;;;;0.52;0.52;;;17.40;99.90;;;;;;5017539;28;20292;-72
2023/08/01 04:29:56;;;;;;;1.10;0.65;;;17.40;99.90;;;;;;5019348;28;20232;-73
2023/08/01 04:32:24;;;;;;;0.63;0.63;;;17.30;99.90;;;;;;5020344;28;20223;-72
2023/08/01 04:34:52;;;;;;;0.70;0.43;;;17.40;99.90;;;;;;5018530;28;20780;-73
2023/08/01 04:37:22;;;;;;;0.60;0.50;;;17.30;99.90;;;;;;5016720;28;20215;-73
2023/08/01 04:39:50;;;;;;;0.50;0.40;;;17.30;99.90;;;;;;5019640;28;20235;-73
2023/08/01 04:42:18;;;;;;;0.50;0.35;;;17.30;99.90;;;;;;5017857;28;20208;-73
2023/08/01 04:44:47;;;;;;;0.65;0.50;;;17.30;99.90;;;;;;5018155;28;20220;-73
2023/08/01 04:47:15;;;;;;;0.50;0.40;;;17.30;99.90;;;;;;5016774;28;20212;-73
2023/08/01 04:49:44;;;;;;;0.70;0.70;;;17.30;99.90;;;;;;5015778;28;20228;-73
2023/08/01 04:52:11;;;;;;;0.60;0.57;;;17.30;99.90;;;;;;5018667;28;20223;-72
2023/08/01 04:54:39;;;;;;;0.50;0.40;;;17.30;99.90;;;;;;5019870;28;20208;-75
2023/08/01 04:57:07;;;;;;;0.60;0.60;;;17.30;99.90;;;;;;5017647;28;20216;-73
2023/08/01 04:59:35;;;;;;;0.60;0.57;;;17.30;99.90;;;;;;5020167;28;20231;-72
2023/08/01 05:02:05;;;;;;;0.60;0.60;;;17.30;99.90;;;;;;5017588;28;20571;-72
2023/08/01 05:04:33;;;;;;;0.70;0.63;;;17.30;99.90;;;;;;5017511;28;20242;-73
2023/08/01 05:07:01;;;;;;;1.08;0.98;;;17.40;99.90;;;;;;5015497;28;20725;-74
2023/08/01 05:09:29;;;;;;;0.50;0.40;;;17.40;99.90;;;;;;5018301;28;20232;-73
2023/08/01 05:11:57;;;;;;;1.30;0.80;;;17.40;99.90;;;;;;5020630;28;20225;-74
2023/08/01 05:14:25;;;;;;;0.50;0.40;;;17.50;99.90;;;;;;5019305;28;20287;-70
2023/08/01 05:16:53;;;;;;;0.60;0.50;;;17.40;99.90;;;;;;5015860;28;20269;-72
2023/08/01 05:19:22;;;;;;;0.60;0.50;;;17.40;99.90;;;;;;5018762;28;20706;-74
2023/08/01 05:21:50;;;;;;;0.70;0.70;;;17.40;99.90;;;;;;5016503;28;20581;-74
2023/08/01 05:24:18;;;;;;;0.50;0.40;;;17.40;99.90;;;;;;5016331;28;20581;-73
2023/08/01 05:26:46;;;;;;;0.60;0.43;;;17.40;99.90;;;;;;5016691;28;20847;-73
2023/08/01 05:29:14;;;;;;;0.50;0.47;;;17.40;99.90;;;;;;5018121;28;20632;-74
2023/08/01 05:31:42;;;;;;;0.50;0.30;;;17.40;99.90;;;;;;5017565;28;20448;-73
2023/08/01 05:34:10;;;;;;;0.50;0.40;;;17.40;99.90;;;;;;5016733;28;20205;-73
2023/08/01 05:36:39;;;;;;;0.55;0.50;;;17.40;99.90;;;;;;5016477;28;20212;-73
2023/08/01 05:39:08;;;;;;;0.50;0.40;;;17.30;99.90;;;;;;5014403;28;20236;-72
2023/08/01 05:41:36;;;;;;;0.50;0.30;;;17.40;99.90;;;;;;5016234;28;20220;-72
2023/08/01 05:44:05;;;;;;;1.05;0.68;;;17.30;99.90;;;;;;5016824;28;20220;-74
2023/08/01 05:46:33;;;;;;;0.50;0.40;;;17.40;99.90;;;;;;5017560;28;20228;-72
2023/08/01 05:49:01;;;;;;;0.50;0.40;;;17.40;99.90;;;;;;5015362;28;20232;-72
2023/08/01 05:51:29;;;;;;;0.60;0.50;;;17.30;99.90;;;;;;5017806;28;20589;-74
2023/08/01 05:53:58;;;;;;;0.60;0.40;;;17.30;99.90;;;;;;5017272;28;20219;-71
2023/08/01 05:56:26;;;;;;;0.93;0.85;;;17.30;99.90;;;;;;5017041;28;20212;-74
2023/08/01 05:58:54;;;;;;;0.50;0.40;;;17.20;99.90;;;;;;5018034;28;20232;-72
2023/08/01 06:01:23;;;;;;;0.50;0.30;;;17.20;99.90;;;;;;5019642;28;20287;-74
2023/08/01 06:03:51;;;;;;;0.60;0.50;;;17.20;99.90;;;;;;5021897;28;20213;-73
2023/08/01 06:06:19;;;;;;;0.60;0.43;;;17.20;99.90;;;;;;5020287;28;20232;-73
2023/08/01 06:08:47;;;;;;;1.67;0.70;;;17.20;99.90;;;;;;5022631;28;20303;-73
2023/08/01 06:11:16;;;;;;;0.80;0.50;;;17.20;99.90;;;;;;5023976;28;20208;-76
2023/08/01 06:13:44;;;;;;;0.85;0.52;;;17.10;99.90;;;;;;5024542;28;20566;-77
2023/08/01 06:16:12;;;;;;;0.70;0.50;;;17.20;99.90;;;;;;5015437;28;20210;-75
2023/08/01 06:18:40;;;;;;;0.57;0.50;;;17.10;99.90;;;;;;5017104;28;20236;-76
2023/08/01 06:21:08;;;;;;;0.50;0.40;;;17.10;99.90;;;;;;5030425;28;20209;-76
2023/08/01 06:23:36;;;;;;;0.50;0.40;;;17.10;99.90;;;;;;5019571;28;20238;-75
2023/08/01 06:26:04;;;;;;;0.50;0.30;;;17.10;99.90;;;;;;5016006;28;20231;-75
2023/08/01 06:28:33;;;;;;;0.60;0.40;;;17.10;99.90;;;;;;5013952;28;20233;-74
2023/08/01 06:31:02;;;;;;;0.55;0.47;;;17.10;99.90;;;;;;5015483;28;20683;-74
2023/08/01 06:33:30;;;;;;;0.50;0.30;;;17.10;99.90;;;;;;5016002;28;20198;-75
2023/08/01 06:35:58;;;;;;;0.50;0.40;;;17.20;99.90;;;;;;5016971;28;20205;-75
2023/08/01 06:38:26;;;;;;;0.80;0.40;;;17.20;99.90;;;;;;5019686;28;20723;-76
2023/08/01 06:40:54;;;;;;;1.55;0.40;;;17.20;99.90;;;;;;5027924;28;20212;-76
2023/08/01 06:43:24;;;;;;;0.50;0.30;;;17.30;99.90;;;;;;5023733;28;20624;-77
2023/08/01 06:45:53;;;;;;;0.50;0.30;;;17.20;99.90;;;;;;5031658;28;20226;-77
2023/08/01 06:48:21;;;;;;;4.53;0.52;;;17.30;99.90;;;;;;5031150;28;20315;-77
2023/08/01 06:50:49;;;;;;;1.00;0.75;;;17.20;99.90;;;;;;5031437;28;20211;-76
2023/08/01 06:53:17;;;;;;;0.50;0.40;;;17.20;99.90;;;;;;5031885;28;20216;-76
2023/08/01 06:55:45;;;;;;;0.50;0.30;;;17.20;99.90;;;;;;5033358;28;20205;-76
2023/08/01 06:58:13;;;;;;;0.50;0.40;;;17.40;99.90;;;;;;5025000;28;20228;-77
2023/08/01 07:00:41;;;;;;;0.50;0.40;;;17.50;99.90;;;;;;5033260;28;20205;-76
2023/08/01 07:03:10;;;;;;;0.50;0.30;;;17.40;99.90;;;;;;5033177;28;20211;-76
2023/08/01 07:05:38;;;;;;;0.50;0.30;;;17.40;99.90;;;;;;5025180;28;20221;-76
2023/08/01 07:08:06;;;;;;;0.60;0.40;;;17.50;99.90;;;;;;5024582;28;20216;-76
2023/08/01 07:10:36;;;;;;;0.50;0.30;;;17.60;99.90;;;;;;5032804;28;20656;-76
2023/08/01 07:13:04;;;;;;;0.50;0.40;;;17.60;99.90;;;;;;5031498;28;20208;-76
2023/08/01 07:15:33;;;;;;;0.50;0.30;;;17.70;99.90;;;;;;5026244;28;20196;-75
2023/08/01 07:18:01;;;;;;;0.75;0.75;;;17.80;99.90;;;;;;5032279;28;20216;-75
2023/08/01 07:20:30;;;;;;;5.75;0.77;;;17.90;99.90;;;;;;5033350;28;20565;-75
2023/08/01 07:22:58;;;;;;;0.50;0.30;;;17.80;99.90;;;;;;5032933;28;20226;-75
2023/08/01 07:25:26;;;;;;;0.60;0.40;;;17.90;99.90;;;;;;5025158;28;20204;-74
2023/08/01 07:27:54;;;;;;;0.98;0.85;;;17.90;99.90;;;;;;5024417;28;20247;-75
2023/08/01 07:30:22;;;;;;;0.50;0.40;;;17.90;99.90;;;;;;5032446;28;20625;-74
2023/08/01 07:32:50;;;;;;;0.55;0.45;;;18.00;99.90;;;;;;5032562;28;20219;-75
2023/08/01 07:35:18;;;;;;;0.60;0.40;;;17.90;99.90;;;;;;5032624;28;20213;-74
2023/08/01 07:37:47;;;;;;;0.50;0.40;;;17.90;99.90;;;;;;5032437;28;20204;-74
2023/08/01 07:40:15;;;;;;;0.60;0.40;;;17.90;99.90;;;;;;5032231;28;20699;-75
2023/08/01 07:42:43;;;;;;;1.60;1.48;;;17.90;99.90;;;;;;5032558;28;20208;-74
2023/08/01 07:45:11;;;;;;;0.70;0.40;;;18.00;99.90;;;;;;5032418;28;20215;-75
2023/08/01 07:47:39;;;;;;;0.70;0.50;;;18.00;99.90;;;;;;5024163;28;20220;-74
2023/08/01 07:50:07;;;;;;;1.15;0.65;;;18.00;99.90;;;;;;5031172;28;20224;-74
2023/08/01 07:52:35;;;;;;;0.60;0.50;;;18.10;99.90;;;;;;5025764;28;20568;-74
2023/08/01 07:55:06;;;;;;;0.52;0.43;;;18.20;99.90;;;;;;5032193;28;20227;-73
2023/08/01 07:57:34;;;;;;;0.98;0.95;;;18.40;99.90;;;;;;5032105;28;20192;-73
2023/08/01 08:00:03;;;;;;;0.50;0.40;;;18.70;99.90;;;;;;5031724;28;20732;-72
2023/08/01 08:02:31;;;;;;;0.60;0.40;;;18.90;99.90;;;;;;5032132;28;20210;-72
2023/08/01 08:04:59;;;;;;;0.50;0.40;;;19.20;99.90;;;;;;5031883;28;20267;-72
2023/08/01 08:07:27;;;;;;;0.50;0.40;;;19.40;99.90;;;;;;5031760;28;20216;-72
2023/08/01 08:09:55;;;;;;;0.80;0.40;;;19.50;99.90;;;;;;5031803;28;20219;-72
2023/08/01 08:12:25;;;;;;;0.50;0.30;;;19.50;99.90;;;;;;5031886;28;20254;-72
2023/08/01 08:14:53;;;;;;;0.60;0.40;;;19.60;99.90;;;;;;5031821;28;20212;-73
2023/08/01 08:17:21;;;;;;;0.50;0.40;;;19.70;99.90;;;;;;5031409;28;20532;-73
2023/08/01 08:19:48;;;;;;;0.50;0.30;;;19.80;99.90;;;;;;5031973;28;20232;-73
2023/08/01 08:22:16;;;;;;;0.68;0.55;;;19.70;99.90;;;;;;5031823;28;20682;-73
2023/08/01 08:24:44;;;;;;;0.50;0.40;;;19.80;99.90;;;;;;5031156;28;20208;-72
2023/08/01 08:27:13;;;;;;;0.50;0.30;;;19.90;99.90;;;;;;5031344;28;20334;-72
2023/08/01 08:29:43;;;;;;;1.05;0.40;;;20.00;99.90;;;;;;5031383;28;20219;-72
2023/08/01 08:32:10;;;;;;;0.50;0.30;;;20.10;99.90;;;;;;5031371;28;20219;-71
2023/08/01 08:34:39;;;;;;;0.75;0.40;;;20.20;99.90;;;;;;5031557;28;20215;-72
2023/08/01 08:37:07;;;;;;;0.70;0.40;;;20.30;99.90;;;;;;5031322;28;20208;-72
2023/08/01 08:39:35;;;;;;;0.50;0.30;;;20.40;99.90;;;;;;5031395;28;20224;-72
2023/08/01 08:42:05;;;;;;;0.57;0.43;;;20.40;99.90;;;;;;5031069;28;20212;-71
2023/08/01 08:44:43;;;;;;;0.98;0.40;;;20.50;99.90;;;;;;5031267;28;20216;-71
2023/08/01 08:47:12;;;;;;;0.60;0.40;;;20.70;99.90;;;;;;5031029;28;20228;-72
2023/08/01 08:49:41;;;;;;;0.50;0.40;;;20.80;99.90;;;;;;5031481;28;20231;-74
2023/08/01 08:52:11;;;;;;;0.50;0.30;;;20.70;99.90;;;;;;5031043;28;20208;-74
2023/08/01 08:54:39;;;;;;;0.50;0.40;;;20.80;99.90;;;;;;5031144;28;20208;-73
2023/08/01 08:57:07;;;;;;;0.60;0.50;;;20.80;99.90;;;;;;5030854;28;20208;-73
2023/08/01 08:59:36;;;;;;;0.60;0.45;;;20.80;99.90;;;;;;5031135;28;20235;-73
2023/08/01 09:02:04;;;;;;;0.50;0.40;;;20.80;99.90;;;;;;5030986;28;20675;-73
2023/08/01 09:04:34;;;;;;;0.50;0.40;;;20.90;99.90;;;;;;5031271;28;20207;-74
2023/08/01 09:07:07;;;;;;;0.60;0.50;;;21.10;99.90;;;;;;5030655;28;20598;-73
2023/08/01 09:09:36;;;;;;;0.52;0.38;;;21.40;99.90;;;;;;5019477;28;20228;-73
2023/08/01 09:12:05;;;;;;;0.50;0.40;;;21.60;99.90;;;;;;5027662;28;20559;-71
2023/08/01 09:14:35;;;;;;;1.10;0.40;;;21.80;99.90;;;;;;5031046;28;20205;-72
2023/08/01 09:17:10;;;;;;;0.60;0.52;;;21.80;99.90;;;;;;5030665;28;20215;-73
2023/08/01 09:19:39;;;;;;;0.50;0.40;;;22.00;99.90;;;;;;5021607;28;20691;-73
2023/08/01 09:22:11;;;;;;;0.50;0.40;;;22.10;99.90;;;;;;5030373;28;20220;-74
2023/08/01 09:24:39;;;;;;;0.50;0.30;;;22.10;99.90;;;;;;5030982;28;20208;-73
2023/08/01 09:27:09;;;;;;;0.55;0.38;;;22.20;99.90;;;;;;5030283;28;20224;-74
2023/08/01 09:29:37;;;;;;;0.60;0.40;;;22.40;99.90;;;;;;5030852;28;20224;-74
2023/08/01 09:32:13;;;;;;;0.93;0.45;;;22.50;99.90;;;;;;5030058;28;20483;-74
2023/08/01 09:34:43;;;;;;;0.50;0.40;;;22.70;99.90;;;;;;5030460;28;20232;-74
2023/08/01 09:37:11;;;;;;;0.50;0.40;;;22.80;99.90;;;;;;5033381;28;20208;-73
2023/08/01 09:39:39;;;;;;;0.70;0.47;;;23.00;99.90;;;;;;5034797;28;20642;-74
2023/08/01 09:42:08;;;;;;;0.60;0.40;;;23.00;99.90;;;;;;5034395;28;20575;-75
2023/08/01 09:44:37;;;;;;;0.60;0.60;;;23.10;99.90;;;;;;5034653;28;20783;-72
2023/08/01 09:47:06;;;;;;;0.50;0.30;;;23.40;99.90;;;;;;5034349;28;20224;-73
2023/08/01 09:49:34;;;;;;;0.55;0.40;;;23.40;99.90;;;;;;5034394;28;20225;-74
2023/08/01 09:52:04;;;;;;;1.05;0.52;;;23.20;99.90;;;;;;5034511;28;20223;-75
2023/08/01 09:54:32;;;;;;;0.50;0.40;;;22.70;99.90;;;;;;5034667;28;20678;-74
2023/08/01 09:57:04;;;;;;;0.60;0.50;;;22.80;99.90;;;;;;5034464;28;20213;-73
2023/08/01 09:59:32;;;;;;;1.15;1.10;;;22.90;99.90;;;;;;5034244;28;20229;-74
2023/08/01 10:02:02;;;;;;;0.50;0.30;;;22.80;99.90;;;;;;5034087;28;20400;-75
2023/08/01 10:04:31;;;;;;;0.60;0.40;;;22.60;99.90;;;;;;5031473;28;20296;-75
2023/08/01 10:07:04;;;;;;;0.60;0.47;;;22.50;99.90;;;;;;5029767;28;20205;-75
2023/08/01 10:09:35;;;;;;;0.57;0.47;;;22.20;99.90;;;;;;5026101;28;20227;-74
2023/08/01 10:12:05;;;;;;;0.77;0.43;;;22.00;99.90;;;;;;5034195;28;20218;-73
2023/08/01 10:14:34;;;;;;;0.60;0.45;;;21.70;99.90;;;;;;5030788;28;20200;-74
2023/08/01 10:17:03;;;;;;;0.60;0.50;;;21.50;99.90;;;;;;5029795;28;20205;-74
2023/08/01 10:19:33;;;;;;;0.73;0.68;;;21.70;99.90;;;;;;5033518;28;20322;-73
2023/08/01 10:22:03;;;;;;;0.50;0.35;;;22.10;99.90;;;;;;5033879;28;20208;-74
2023/08/01 10:24:34;;;;;;;0.60;0.50;;;22.60;99.90;;;;;;5033905;28;20204;-74
2023/08/01 10:27:13;;;;;;;0.50;0.40;;;23.00;99.90;;;;;;5033709;28;20211;-74
2023/08/01 10:29:42;;;;;;;0.50;0.40;;;22.80;99.90;;;;;;5026621;28;20227;-74
2023/08/01 10:32:11;;;;;;;0.50;0.40;;;22.70;99.90;;;;;;5033353;28;20201;-74
2023/08/01 10:34:39;;;;;;;0.55;0.40;;;22.40;99.90;;;;;;5033826;28;20205;-73
2023/08/01 10:37:08;;;;;;;0.50;0.30;;;22.30;99.90;;;;;;5033645;28;20213;-72
2023/08/01 10:39:37;;;;;;;1.13;0.50;;;22.30;99.90;;;;;;5025499;28;20229;-73
2023/08/01 10:42:06;;;;;;;0.55;0.40;;;22.70;99.90;;;;;;5033640;28;20295;-74
2023/08/01 10:44:45;;;;;;;0.60;0.50;;;23.20;99.90;;;;;;5025415;28;20309;-75
2023/08/01 10:47:13;;;;;;;0.60;0.43;;;23.60;99.90;;;;;;5032645;28;20730;-74
2023/08/01 10:49:43;;;;;;;0.60;0.55;;;23.80;99.90;;;;;;5033801;28;20224;-75
2023/08/01 10:52:18;;;;;;;0.60;0.50;;;23.80;99.90;;;;;;5033246;28;20698;-74
2023/08/01 10:54:48;;;;;;;0.70;0.70;;;23.70;99.90;;;;;;5026744;28;20612;-72
2023/08/01 10:57:19;;;;;;;0.60;0.40;;;23.30;99.90;;;;;;5033255;28;20231;-74
2023/08/01 10:59:47;;;;;;;0.50;0.40;;;22.90;99.90;;;;;;5033560;28;20231;-72
2023/08/01 11:02:21;;;;;;;0.95;0.88;;;22.70;99.90;;;;;;5033323;28;20220;-72
2023/08/01 11:04:59;;;;;;;0.50;0.40;;;22.30;99.90;;;;;;5033760;28;20214;-74
2023/08/01 11:07:28;;;;;;;0.70;0.50;;;22.10;99.90;;;;;;5033139;28;20209;-74
2023/08/01 11:10:09;;;;;;;0.60;0.40;;;21.90;99.90;;;;;;5033259;28;20229;-74
2023/08/01 11:12:38;;;;;;;0.50;0.40;;;21.60;99.90;;;;;;5032895;28;20212;-73
2023/08/01 11:15:09;;;;;;;0.60;0.40;;;21.70;99.90;;;;;;5033295;28;20664;-73
2023/08/01 11:17:37;;;;;;;0.60;0.40;;;22.00;99.90;;;;;;5033245;28;20573;-73
2023/08/01 11:20:07;;;;;;;0.50;0.40;;;22.40;99.90;;;;;;5032818;28;20263;-73
2023/08/01 11:22:35;;;;;;;0.60;0.50;;;22.90;99.90;;;;;;5032645;28;20201;-73
2023/08/01 11:25:04;;;;;;;0.65;0.65;;;23.30;99.90;;;;;;5033086;28;20209;-72
2023/08/01 11:27:35;;;;;;;0.60;0.40;;;23.80;99.90;;;;;;5032300;28;20224;-73
2023/08/01 11:30:04;;;;;;;0.60;0.40;;;24.00;99.90;;;;;;5026199;28;20233;-73
2023/08/01 11:32:36;;;;;;;0.63;0.40;;;23.90;99.90;;;;;;5031538;28;20209;-72
2023/08/01 11:35:05;;;;;;;0.90;0.70;;;23.70;99.90;;;;;;5033237;28;20569;-72
2023/08/01 11:37:33;;;;;;;0.63;0.57;;;23.60;99.90;;;;;;5032135;28;20216;-73
2023/08/01 11:40:02;;;;;;;0.57;0.45;;;23.40;99.90;;;;;;5026271;28;20233;-73
2023/08/01 11:42:35;;;;;;;0.50;0.40;;;23.20;99.90;;;;;;5031196;28;20296;-72
2023/08/01 11:45:10;;;;;;;0.50;0.40;;;22.80;99.90;;;;;;5032676;28;20216;-73
2023/08/01 11:47:38;;;;;;;1.90;0.40;;;22.80;99.90;;;;;;5032138;28;20206;-74
2023/08/01 11:50:07;;;;;;;0.50;0.40;;;22.70;99.90;;;;;;5032361;28;20309;-73
2023/08/01 11:52:35;;;;;;;0.50;0.30;;;22.80;99.90;;;;;;5032132;28;20212;-74
2023/08/01 11:55:04;;;;;;;0.50;0.30;;;22.90;99.90;;;;;;5032459;28;20673;-74
2023/08/01 11:57:32;;;;;;;0.70;0.43;;;23.20;99.90;;;;;;5032006;28;20206;-72
2023/08/01 12:00:01;;;;;;;0.50;0.40;;;23.50;99.90;;;;;;5032273;28;20234;-73
2023/08/01 12:02:30;;;;;;;0.60;0.47;;;23.40;99.90;;;;;;5032396;28;20216;-74
2023/08/01 12:04:58;;;;;;;0.55;0.40;;;23.10;99.90;;;;;;5032595;28;20266;-72
2023/08/01 12:07:29;;;;;;;0.50;0.30;;;22.90;99.90;;;;;;5031629;28;20266;-73
2023/08/01 12:09:57;;;;;;;0.60;0.40;;;22.70;99.90;;;;;;5032226;28;20251;-74
2023/08/01 12:12:28;;;;;;;0.60;0.45;;;22.70;99.90;;;;;;5030979;28;20300;-73
2023/08/01 12:14:56;;;;;;;0.60;0.40;;;22.60;99.90;;;;;;5025613;28;20232;-72
2023/08/01 12:17:26;;;;;;;0.50;0.30;;;22.60;99.90;;;;;;5031422;28;20663;-72
2023/08/01 12:19:54;;;;;;;0.50;0.40;;;22.50;99.90;;;;;;5031655;28;20525;-72
2023/08/01 12:22:22;;;;;;;0.73;0.50;;;22.40;99.90;;;;;;5031937;28;20208;-72
2023/08/01 12:24:50;;;;;;;0.70;0.50;;;22.60;99.90;;;;;;5031852;28;20200;-73
2023/08/01 12:27:18;;;;;;;0.60;0.50;;;22.90;99.90;;;;;;5031366;28;20248;-74
2023/08/01 12:29:46;;;;;;;0.50;0.40;;;23.10;99.90;;;;;;5023439;28;20236;-74
2023/08/01 12:32:13;;;;;;;;;;;23.20;99.90;;;;;;5032262;28;20053;-74
2023/08/01 12:34:43;;;;;;;;;;;23.00;99.90;;;;;;5032268;28;19924;-73
2023/08/01 12:37:10;;;;;;;;;;;22.90;99.90;;;;;;5025258;28;19921;-73
2023/08/01 12:39:38;;;;;;;;;;;22.80;99.90;;;;;;5030974;28;19929;-73
2023/08/01 12:42:06;;;;;;;;;;;22.30;99.90;;;;;;5026036;28;19945;-73
2023/08/01 12:44:34;;;;;;;;;;;22.00;99.90;;;;;;5030116;28;19929;-72
2023/08/01 12:47:02;;;;;;;;;;;21.80;99.90;;;;;;5031728;28;20062;-73
2023/08/01 12:49:30;;;;;;;;;;;21.70;99.90;;;;;;5031567;28;20019;-72
2023/08/01 12:51:59;;;;;;;;;;;21.60;99.90;;;;;;5024229;28;20097;-72
2023/08/01 12:54:27;;;;;;;;;;;21.70;99.90;;;;;;5031799;28;19921;-72
2023/08/01 12:56:54;;;;;;;;;;;22.20;99.90;;;;;;5031866;28;19928;-72
2023/08/01 12:59:22;;;;;;;;;;;22.70;99.90;;;;;;5031835;28;19929;-73
2023/08/01 13:01:50;;;;;;;;;;;23.40;99.90;;;;;;5023919;28;19921;-74
2023/08/01 13:04:18;;;;;;;;;;;23.90;99.90;;;;;;5031715;28;19921;-73
2023/08/01 13:06:46;;;;;;;;;;;24.70;99.90;;;;;;5023327;28;19924;-72
2023/08/01 13:09:15;;;;;;;;;;;25.40;99.90;;;;;;5023543;28;19921;-73
2023/08/01 13:11:44;;;;;;;;;;;26.10;99.90;;;;;;5030948;28;19929;-73
2023/08/01 13:14:12;;;;;;;;;;;26.60;99.90;;;;;;5031587;28;19925;-73
2023/08/01 13:16:40;;;;;;;;;;;26.90;99.90;;;;;;5031177;28;20388;-72
2023/08/01 13:19:08;;;;;;;;;;;26.90;99.90;;;;;;5031219;28;19951;-73
2023/08/01 13:21:36;;;;;;;;;;;26.90;99.90;;;;;;5031315;28;20299;-73
2023/08/01 13:24:05;;;;;;;;;;;26.60;99.90;;;;;;5031405;28;19978;-72
2023/08/01 13:26:34;;;;;;;;;;;26.30;99.90;;;;;;5031119;28;19925;-74